Time;durP1;ratioP1;P1;durP2;ratioP2;P2;SDS_P1;SDS_P2;PMS_P1;PMS_P2;Temp;Humidity;BMP_temperature;BMP_pressure;BME280_temperature;BME280_humidity;BME280_pressure;Samples;Min_cycle;Max_cycle;Signal;HPM_P1;HPM_P2
2024/01/13 00:02:03;;;;;;;23.10;7.60;;;1.40;91.30;;;;;;5004341;28;20488;-54
2024/01/13 00:04:32;;;;;;;13.23;5.63;;;1.40;94.40;;;;;;5002736;28;20534;-54
2024/01/13 00:06:58;;;;;;;13.50;6.17;;;1.40;92.90;;;;;;5007854;28;20460;-54
2024/01/13 00:09:25;;;;;;;17.03;5.00;;;1.40;92.70;;;;;;5009906;28;20901;-55
2024/01/13 00:11:52;;;;;;;14.50;4.40;;;1.40;91.10;;;;;;5010173;28;20507;-54
2024/01/13 00:14:18;;;;;;;16.17;4.80;;;1.40;92.60;;;;;;5006096;28;21371;-54
2024/01/13 00:16:45;;;;;;;15.13;5.17;;;1.50;92.30;;;;;;5005661;28;20471;-54
2024/01/13 00:19:12;;;;;;;15.40;5.80;;;1.40;89.90;;;;;;5009713;28;20475;-53
2024/01/13 00:21:40;;;;;;;17.17;5.40;;;1.40;89.60;;;;;;5009970;28;20447;-58
2024/01/13 00:24:07;;;;;;;12.53;4.87;;;1.40;89.40;;;;;;5010115;28;21020;-54
2024/01/13 00:26:33;;;;;;;19.03;6.90;;;1.50;88.20;;;;;;5010168;28;21073;-55
2024/01/13 00:29:00;;;;;;;10.40;4.10;;;1.50;88.60;;;;;;5009504;28;20525;-55
2024/01/13 00:31:27;;;;;;;12.80;4.87;;;1.50;87.30;;;;;;5010769;28;21017;-54
2024/01/13 00:33:53;;;;;;;16.80;5.90;;;1.50;88.30;;;;;;5009331;28;20475;-54
2024/01/13 00:36:20;;;;;;;23.00;6.17;;;1.50;88.30;;;;;;5008136;28;20475;-54
2024/01/13 00:38:48;;;;;;;12.67;4.40;;;1.50;91.70;;;;;;5012578;28;21028;-55
2024/01/13 00:41:15;;;;;;;12.57;5.43;;;1.50;89.20;;;;;;5011316;28;20475;-53
2024/01/13 00:43:41;;;;;;;15.50;5.83;;;1.50;86.20;;;;;;5009526;28;20469;-54
2024/01/13 00:46:08;;;;;;;15.47;4.97;;;1.50;86.30;;;;;;5009672;28;20471;-55
2024/01/13 00:48:36;;;;;;;10.80;4.83;;;1.50;87.40;;;;;;5007193;28;20448;-55
2024/01/13 00:51:02;;;;;;;17.50;6.47;;;1.50;86.40;;;;;;5008248;28;20487;-54
2024/01/13 00:53:30;;;;;;;13.87;5.80;;;1.50;85.70;;;;;;5011715;28;21023;-54
2024/01/13 00:55:58;;;;;;;14.87;5.43;;;1.50;85.40;;;;;;5010197;28;20451;-54
2024/01/13 00:58:25;;;;;;;15.43;5.50;;;1.60;85.00;;;;;;5008755;28;20526;-55
2024/01/13 01:00:51;;;;;;;15.30;4.97;;;1.60;84.30;;;;;;5010644;28;20494;-54
2024/01/13 01:03:18;;;;;;;16.00;5.63;;;1.60;86.90;;;;;;5009937;28;20548;-54
2024/01/13 01:05:44;;;;;;;15.53;4.70;;;1.50;88.60;;;;;;5011510;28;20444;-54
2024/01/13 01:08:11;;;;;;;13.10;4.80;;;1.60;83.60;;;;;;5006133;28;20444;-55
2024/01/13 01:10:38;;;;;;;11.03;4.17;;;1.60;83.20;;;;;;5006465;28;20570;-54
2024/01/13 01:13:06;;;;;;;9.43;4.20;;;1.60;82.70;;;;;;5004236;28;20495;-55
2024/01/13 01:15:33;;;;;;;13.63;5.20;;;1.60;82.60;;;;;;5015190;28;20949;-54
2024/01/13 01:17:59;;;;;;;12.83;4.57;;;1.60;84.20;;;;;;5010582;28;21117;-54
2024/01/13 01:20:26;;;;;;;14.43;4.67;;;1.60;83.20;;;;;;5010176;28;20436;-54
2024/01/13 01:22:53;;;;;;;19.30;4.90;;;1.60;84.20;;;;;;5012810;28;20463;-54
2024/01/13 01:25:19;;;;;;;18.50;5.77;;;1.60;80.50;;;;;;5008637;28;20498;-54
2024/01/13 01:27:46;;;;;;;11.20;5.10;;;1.60;81.40;;;;;;5009368;28;20547;-54
2024/01/13 01:30:14;;;;;;;13.80;5.83;;;1.60;78.50;;;;;;5010425;28;20448;-55
2024/01/13 01:32:41;;;;;;;17.50;6.40;;;1.60;80.10;;;;;;5009683;28;20977;-55
2024/01/13 01:35:08;;;;;;;14.10;5.23;;;1.70;79.20;;;;;;5012054;28;21008;-54
2024/01/13 01:37:34;;;;;;;20.33;6.10;;;1.70;79.40;;;;;;5013469;28;20987;-54
2024/01/13 01:40:01;;;;;;;21.53;7.73;;;1.70;77.90;;;;;;5011954;28;20536;-54
2024/01/13 01:42:28;;;;;;;11.20;4.47;;;1.70;79.60;;;;;;5013210;28;20460;-54
2024/01/13 01:44:55;;;;;;;9.30;4.40;;;1.70;78.80;;;;;;5013340;28;20473;-54
2024/01/13 01:47:24;;;;;;;9.00;3.90;;;1.60;78.50;;;;;;5010200;28;20814;-54
2024/01/13 01:49:50;;;;;;;11.50;4.90;;;1.70;76.70;;;;;;5006434;28;20899;-54
2024/01/13 01:52:17;;;;;;;11.70;4.87;;;1.70;75.30;;;;;;5010204;28;20543;-54
2024/01/13 01:54:44;;;;;;;15.00;4.93;;;1.70;76.70;;;;;;5010982;28;20447;-54
2024/01/13 01:57:13;;;;;;;12.73;4.57;;;1.60;75.20;;;;;;5009713;28;20499;-54
2024/01/13 01:59:41;;;;;;;7.30;3.40;;;1.70;73.50;;;;;;5007383;28;20471;-54
2024/01/13 02:02:08;;;;;;;9.70;4.10;;;1.70;72.30;;;;;;5010355;28;20480;-54
2024/01/13 02:04:36;;;;;;;13.43;4.17;;;1.70;71.80;;;;;;5005323;28;20452;-54
2024/01/13 02:07:03;;;;;;;9.07;5.37;;;1.70;70.30;;;;;;5012886;28;20533;-54
2024/01/13 02:09:30;;;;;;;6.00;3.40;;;1.70;66.80;;;;;;5008684;28;20487;-54
2024/01/13 02:11:57;;;;;;;8.60;4.00;;;1.60;67.10;;;;;;5009665;28;20546;-54
2024/01/13 02:14:23;;;;;;;15.70;5.80;;;1.70;66.20;;;;;;5008542;28;20942;-55
2024/01/13 02:16:51;;;;;;;8.07;3.90;;;1.60;66.30;;;;;;5008989;28;20475;-54
2024/01/13 02:19:18;;;;;;;7.57;3.40;;;1.70;64.20;;;;;;5011508;28;20470;-54
2024/01/13 02:21:46;;;;;;;11.87;3.90;;;1.70;63.00;;;;;;5006793;28;20499;-54
2024/01/13 02:24:12;;;;;;;13.57;3.60;;;1.70;62.50;;;;;;5006748;28;20862;-55
2024/01/13 02:26:39;;;;;;;10.90;4.70;;;1.70;61.80;;;;;;5006057;28;20557;-54
2024/01/13 02:29:06;;;;;;;18.20;4.20;;;1.70;61.20;;;;;;5007711;28;20522;-55
2024/01/13 02:31:32;;;;;;;9.23;3.53;;;1.70;61.70;;;;;;5012165;28;20522;-54
2024/01/13 02:33:59;;;;;;;14.03;4.10;;;1.70;60.20;;;;;;5008781;28;20527;-53
2024/01/13 02:36:25;;;;;;;9.90;3.03;;;1.70;58.90;;;;;;5013025;28;20953;-53
2024/01/13 02:38:53;;;;;;;11.20;3.70;;;1.70;59.60;;;;;;5007484;28;20540;-53
2024/01/13 02:41:20;;;;;;;10.33;3.00;;;1.70;59.80;;;;;;5012696;28;20483;-53
2024/01/13 02:43:46;;;;;;;8.47;3.77;;;1.70;57.90;;;;;;5009582;28;20813;-54
2024/01/13 02:46:13;;;;;;;11.37;3.30;;;1.70;59.50;;;;;;5011989;28;20443;-53
2024/01/13 02:48:41;;;;;;;9.10;4.97;;;1.80;59.70;;;;;;5007715;28;21000;-53
2024/01/13 02:51:12;;;;;;;7.37;3.20;;;1.70;62.10;;;;;;5011710;28;20489;-53
2024/01/13 02:53:39;;;;;;;10.87;3.70;;;1.70;61.50;;;;;;5009513;28;20468;-53
2024/01/13 02:56:07;;;;;;;8.17;3.30;;;1.80;61.40;;;;;;5009122;28;20444;-53
2024/01/13 02:58:34;;;;;;;8.10;3.43;;;1.70;58.50;;;;;;5012849;28;20451;-53
2024/01/13 03:01:02;;;;;;;15.93;3.50;;;1.70;57.70;;;;;;5013399;28;20452;-53
2024/01/13 03:03:29;;;;;;;3.23;2.90;;;1.70;56.80;;;;;;5010630;28;20491;-53
2024/01/13 03:05:55;;;;;;;13.23;4.70;;;1.70;56.00;;;;;;5013165;28;20856;-53
2024/01/13 03:08:24;;;;;;;4.17;2.70;;;1.70;56.20;;;;;;5010623;28;20501;-53
2024/01/13 03:10:51;;;;;;;3.87;2.73;;;1.80;52.40;;;;;;5000975;28;20456;-54
2024/01/13 03:13:19;;;;;;;3.60;2.40;;;1.70;53.90;;;;;;5009977;28;20530;-53
2024/01/13 03:15:45;;;;;;;6.57;3.03;;;1.80;54.10;;;;;;5006978;28;20469;-53
2024/01/13 03:18:12;;;;;;;12.67;3.20;;;1.80;54.60;;;;;;5009558;28;21029;-53
2024/01/13 03:20:39;;;;;;;8.40;2.83;;;1.80;54.70;;;;;;5011507;28;20455;-53
2024/01/13 03:23:05;;;;;;;3.73;2.53;;;1.80;53.90;;;;;;5012101;28;20830;-53
2024/01/13 03:25:32;;;;;;;7.17;3.00;;;1.80;55.80;;;;;;5012327;28;20452;-54
2024/01/13 03:27:58;;;;;;;5.43;2.50;;;1.80;54.40;;;;;;5012306;28;20452;-53
2024/01/13 03:30:27;;;;;;;3.97;2.13;;;1.80;52.20;;;;;;5011231;28;20521;-53
2024/01/13 03:32:53;;;;;;;3.37;2.40;;;1.80;47.50;;;;;;5010361;28;20495;-53
2024/01/13 03:35:20;;;;;;;4.23;2.57;;;1.80;52.80;;;;;;5009611;28;20497;-53
2024/01/13 03:37:46;;;;;;;4.60;2.90;;;1.80;49.70;;;;;;5006430;28;20435;-53
2024/01/13 03:40:13;;;;;;;4.57;3.80;;;1.80;49.60;;;;;;5008849;28;20941;-53
2024/01/13 03:42:40;;;;;;;6.63;2.77;;;1.70;48.80;;;;;;5007721;28;20530;-53
2024/01/13 03:45:07;;;;;;;2.77;2.37;;;1.80;45.00;;;;;;5011911;28;20452;-52
2024/01/13 03:47:35;;;;;;;9.10;3.20;;;1.70;44.40;;;;;;5012592;28;20444;-51
2024/01/13 03:50:02;;;;;;;3.70;2.57;;;1.70;37.80;;;;;;5002305;28;20989;-51
2024/01/13 03:52:28;;;;;;;4.07;2.40;;;1.70;37.60;;;;;;5006153;28;20487;-53
2024/01/13 03:54:55;;;;;;;4.37;2.70;;;1.70;36.10;;;;;;5011045;28;20444;-53
2024/01/13 03:57:21;;;;;;;3.77;3.47;;;1.70;35.30;;;;;;5010159;28;20460;-53
2024/01/13 03:59:48;;;;;;;2.40;2.20;;;1.70;34.70;;;;;;5005920;28;20846;-53
2024/01/13 04:02:14;;;;;;;4.77;2.40;;;1.70;30.10;;;;;;5009373;28;20484;-53
2024/01/13 04:04:42;;;;;;;3.73;2.70;;;1.70;27.30;;;;;;5011124;28;20556;-53
2024/01/13 04:07:11;;;;;;;2.70;2.43;;;1.70;28.60;;;;;;5008495;28;20463;-53
2024/01/13 04:09:39;;;;;;;3.70;2.53;;;1.70;25.50;;;;;;5010306;28;20965;-53
2024/01/13 04:12:06;;;;;;;2.23;2.03;;;1.60;25.70;;;;;;5006768;28;20490;-53
2024/01/13 04:14:33;;;;;;;3.20;2.90;;;1.60;23.50;;;;;;5008834;28;20452;-53
2024/01/13 04:17:00;;;;;;;3.07;2.40;;;1.60;22.90;;;;;;5003374;28;20790;-53
2024/01/13 04:19:27;;;;;;;2.70;2.57;;;1.60;21.10;;;;;;5009193;28;20444;-53
2024/01/13 04:21:55;;;;;;;2.90;2.00;;;1.60;20.30;;;;;;5013111;28;20490;-53
2024/01/13 04:24:21;;;;;;;3.07;2.10;;;1.60;20.60;;;;;;5013993;28;20444;-53
2024/01/13 04:26:48;;;;;;;1.97;1.80;;;1.60;75.50;;;;;;5028088;28;20448;-53
2024/01/13 04:29:15;;;;;;;2.20;2.10;;;1.60;76.70;;;;;;5028752;28;20929;-52
2024/01/13 04:31:42;;;;;;;2.23;2.13;;;1.60;75.90;;;;;;5022415;28;20490;-54
2024/01/13 04:34:08;;;;;;;2.30;2.20;;;1.60;78.70;;;;;;5019903;28;20495;-51
2024/01/13 04:36:35;;;;;;;1.77;1.67;;;1.60;89.70;;;;;;5024072;28;20486;-53
2024/01/13 04:39:03;;;;;;;2.07;1.97;;;1.60;99.90;;;;;;5016000;28;20466;-53
2024/01/13 04:41:30;;;;;;;2.40;2.20;;;1.60;93.70;;;;;;5008738;28;20468;-53
2024/01/13 04:43:56;;;;;;;2.00;1.90;;;1.60;91.60;;;;;;5009031;28;20487;-54
2024/01/13 04:46:23;;;;;;;2.00;1.90;;;1.50;94.40;;;;;;5009682;28;20880;-53
2024/01/13 04:48:49;;;;;;;1.83;1.73;;;1.50;96.70;;;;;;5005436;28;20459;-54
2024/01/13 04:51:17;;;;;;;2.07;1.97;;;1.50;99.90;;;;;;5006258;28;20502;-53
2024/01/13 04:53:43;;;;;;;2.77;2.30;;;1.50;99.90;;;;;;5009774;28;20483;-53
2024/01/13 04:56:11;;;;;;;5.23;2.87;;;1.60;99.90;;;;;;5008932;28;20491;-53
2024/01/13 04:58:38;;;;;;;2.57;2.37;;;1.60;99.90;;;;;;5008141;28;20464;-53
2024/01/13 05:01:04;;;;;;;2.00;1.90;;;1.60;99.90;;;;;;5007800;28;21061;-53
2024/01/13 05:03:31;;;;;;;2.13;1.93;;;1.60;99.90;;;;;;5008799;28;20488;-53
2024/01/13 05:05:57;;;;;;;2.33;2.10;;;1.50;99.90;;;;;;5004431;28;20947;-53
2024/01/13 05:08:24;;;;;;;1.80;1.80;;;1.60;99.90;;;;;;5007991;28;20506;-53
2024/01/13 05:10:51;;;;;;;2.30;2.20;;;1.60;99.90;;;;;;5004146;28;20444;-53
2024/01/13 05:13:19;;;;;;;2.80;2.37;;;1.50;99.90;;;;;;5010055;28;21048;-53
2024/01/13 05:15:45;;;;;;;2.10;2.00;;;1.60;99.90;;;;;;5005835;28;20981;-53
2024/01/13 05:18:12;;;;;;;1.83;1.80;;;1.60;99.90;;;;;;5008968;28;20448;-53
2024/01/13 05:20:38;;;;;;;1.63;1.53;;;1.60;99.90;;;;;;5009571;28;20491;-53
2024/01/13 05:23:05;;;;;;;2.00;1.90;;;1.60;99.90;;;;;;5011491;28;20494;-53
2024/01/13 05:25:31;;;;;;;2.40;1.90;;;1.60;99.90;;;;;;5007361;28;20448;-53
2024/01/13 05:27:58;;;;;;;3.10;2.70;;;1.60;99.90;;;;;;4999144;28;21256;-53
2024/01/13 05:30:28;;;;;;;2.00;1.90;;;1.70;99.90;;;;;;5009431;28;20450;-53
2024/01/13 05:32:55;;;;;;;1.73;1.63;;;1.60;99.90;;;;;;5010714;28;20586;-53
2024/01/13 05:35:21;;;;;;;2.10;1.97;;;1.60;99.90;;;;;;5010046;28;20884;-53
2024/01/13 05:37:48;;;;;;;1.90;1.80;;;1.60;99.90;;;;;;5009042;28;20444;-55
2024/01/13 05:40:14;;;;;;;1.90;1.80;;;1.50;99.90;;;;;;5010377;28;20493;-52
2024/01/13 05:42:41;;;;;;;2.07;1.97;;;1.60;99.90;;;;;;5008147;28;20467;-53
2024/01/13 05:45:09;;;;;;;1.87;1.73;;;1.60;99.90;;;;;;5008448;28;20438;-54
2024/01/13 05:47:36;;;;;;;2.23;2.13;;;1.60;99.90;;;;;;5007851;28;20444;-53
2024/01/13 05:50:04;;;;;;;1.60;1.60;;;1.60;99.90;;;;;;5008748;28;21006;-53
2024/01/13 05:52:30;;;;;;;1.93;1.83;;;1.70;99.90;;;;;;5009584;28;20534;-53
2024/01/13 05:54:57;;;;;;;2.27;2.17;;;1.60;99.90;;;;;;5010787;28;20458;-53
2024/01/13 05:57:24;;;;;;;1.97;1.80;;;1.60;99.90;;;;;;5009093;28;20510;-54
2024/01/13 05:59:51;;;;;;;1.83;1.73;;;1.60;99.90;;;;;;5010848;28;20444;-54
2024/01/13 06:02:17;;;;;;;1.67;1.57;;;1.70;99.90;;;;;;5010336;28;20466;-53
2024/01/13 06:04:46;;;;;;;1.37;1.30;;;1.70;99.90;;;;;;5008310;28;20448;-54
2024/01/13 06:07:14;;;;;;;1.90;1.80;;;1.70;99.90;;;;;;5003783;28;20527;-53
2024/01/13 06:09:41;;;;;;;2.07;1.97;;;1.70;99.90;;;;;;5009754;28;20451;-53
2024/01/13 06:12:08;;;;;;;2.63;2.17;;;1.70;99.90;;;;;;5002784;28;20496;-53
2024/01/13 06:14:35;;;;;;;2.40;1.73;;;1.70;99.90;;;;;;5010222;28;20578;-53
2024/01/13 06:17:01;;;;;;;4.00;3.60;;;1.70;99.90;;;;;;5013758;28;20445;-53
2024/01/13 06:19:28;;;;;;;4.63;4.17;;;1.70;99.90;;;;;;5012184;28;20460;-53
2024/01/13 06:21:56;;;;;;;1.83;1.70;;;1.70;99.90;;;;;;5013533;28;20440;-54
2024/01/13 06:24:22;;;;;;;2.63;2.43;;;1.70;99.90;;;;;;5013469;28;20456;-54
2024/01/13 06:26:49;;;;;;;3.00;2.80;;;1.70;99.90;;;;;;5005311;28;20440;-53
2024/01/13 06:29:16;;;;;;;2.67;2.57;;;1.70;99.90;;;;;;5012171;28;20535;-53
2024/01/13 06:31:42;;;;;;;2.47;2.27;;;1.80;99.90;;;;;;5006054;28;20535;-54
2024/01/13 06:34:09;;;;;;;2.23;2.13;;;1.80;99.90;;;;;;5005809;28;20471;-53
2024/01/13 06:36:36;;;;;;;2.40;2.30;;;1.70;99.90;;;;;;5009957;28;20941;-53
2024/01/13 06:39:04;;;;;;;1.90;1.90;;;1.80;99.90;;;;;;5013338;28;20525;-55
2024/01/13 06:41:31;;;;;;;2.40;2.30;;;1.70;99.90;;;;;;5012737;28;20526;-53
2024/01/13 06:43:58;;;;;;;2.63;2.50;;;1.70;99.90;;;;;;5012750;28;20511;-53
2024/01/13 06:46:24;;;;;;;2.80;2.53;;;1.70;99.90;;;;;;5011603;28;20436;-53
2024/01/13 06:48:51;;;;;;;2.83;2.60;;;1.70;99.90;;;;;;5009577;28;20479;-53
2024/01/13 06:51:17;;;;;;;3.00;2.70;;;1.70;99.90;;;;;;5009673;28;20992;-53
2024/01/13 06:53:44;;;;;;;3.10;2.90;;;1.70;99.90;;;;;;5011638;28;20496;-54
2024/01/13 06:56:12;;;;;;;3.40;3.20;;;1.70;99.90;;;;;;5007836;28;20938;-53
2024/01/13 06:58:38;;;;;;;3.23;3.03;;;1.70;99.90;;;;;;5004081;28;20522;-53
2024/01/13 07:01:05;;;;;;;3.20;2.90;;;1.70;99.90;;;;;;5007777;28;20452;-52
2024/01/13 07:03:32;;;;;;;3.03;2.83;;;1.70;99.90;;;;;;5009893;28;20463;-54
2024/01/13 07:05:59;;;;;;;3.10;3.00;;;1.70;99.90;;;;;;5008089;28;20910;-53
2024/01/13 07:08:25;;;;;;;2.93;2.73;;;1.70;99.90;;;;;;5013346;28;20510;-54
2024/01/13 07:10:54;;;;;;;3.27;3.07;;;1.70;99.90;;;;;;5009313;28;20443;-54
2024/01/13 07:13:22;;;;;;;3.00;2.80;;;1.80;99.90;;;;;;5011944;28;20519;-52
2024/01/13 07:15:48;;;;;;;3.30;3.17;;;1.80;99.90;;;;;;5013389;28;20440;-54
2024/01/13 07:18:15;;;;;;;3.60;3.40;;;1.80;99.90;;;;;;5011933;28;20490;-54
2024/01/13 07:20:42;;;;;;;2.70;2.60;;;1.80;99.90;;;;;;5011843;28;20898;-54
2024/01/13 07:23:08;;;;;;;3.90;3.00;;;1.80;99.90;;;;;;5011834;28;20513;-53
2024/01/13 07:25:35;;;;;;;3.50;3.30;;;1.80;99.90;;;;;;5009525;28;20439;-53
2024/01/13 07:28:02;;;;;;;2.90;2.80;;;1.80;99.90;;;;;;5011267;28;21080;-54
2024/01/13 07:30:29;;;;;;;3.03;2.93;;;1.80;99.90;;;;;;5012037;28;20506;-53
2024/01/13 07:32:56;;;;;;;3.50;3.30;;;1.80;99.90;;;;;;5012533;28;20487;-53
2024/01/13 07:35:23;;;;;;;2.63;2.50;;;1.80;99.90;;;;;;5011771;28;20444;-53
2024/01/13 07:37:49;;;;;;;2.67;2.57;;;1.80;99.90;;;;;;5001279;28;20794;-53
2024/01/13 07:40:17;;;;;;;2.43;2.33;;;1.80;99.90;;;;;;5012344;28;20505;-53
2024/01/13 07:42:43;;;;;;;3.27;3.00;;;1.70;99.90;;;;;;5005461;28;20488;-60
2024/01/13 07:45:10;;;;;;;2.30;2.20;;;1.80;99.90;;;;;;5017553;28;20490;-53
2024/01/13 07:47:38;;;;;;;2.40;2.30;;;1.80;99.90;;;;;;5004653;28;20449;-52
2024/01/13 07:50:05;;;;;;;2.57;2.47;;;1.80;99.90;;;;;;5012156;28;20494;-53
2024/01/13 07:52:32;;;;;;;3.83;2.43;;;1.80;99.90;;;;;;5009249;28;20518;-54
2024/01/13 07:54:58;;;;;;;2.40;2.30;;;1.80;99.90;;;;;;5011515;28;20451;-54
2024/01/13 07:57:27;;;;;;;2.83;2.60;;;1.80;99.90;;;;;;5009933;28;20522;-53
2024/01/13 07:59:54;;;;;;;2.60;2.50;;;1.80;99.90;;;;;;5005178;28;20459;-54
2024/01/13 08:02:21;;;;;;;2.43;2.33;;;1.90;99.90;;;;;;5005653;28;20475;-54
2024/01/13 08:04:48;;;;;;;2.10;2.00;;;1.90;94.80;;;;;;5003245;28;20459;-53
2024/01/13 08:07:15;;;;;;;2.33;2.23;;;1.80;84.90;;;;;;5008806;28;21150;-54
2024/01/13 08:09:42;;;;;;;2.40;2.30;;;1.90;90.70;;;;;;5011419;28;20495;-52
2024/01/13 08:12:09;;;;;;;2.47;2.37;;;1.80;87.10;;;;;;5011772;28;20529;-54
2024/01/13 08:14:35;;;;;;;2.07;1.97;;;1.80;87.50;;;;;;5011834;28;20541;-53
2024/01/13 08:17:02;;;;;;;2.30;2.20;;;1.90;86.80;;;;;;5011723;28;20926;-54
2024/01/13 08:19:28;;;;;;;2.07;1.97;;;1.90;83.60;;;;;;5010512;28;20551;-54
2024/01/13 08:21:56;;;;;;;2.00;1.90;;;1.80;74.20;;;;;;5011629;28;20506;-54
2024/01/13 08:24:23;;;;;;;1.70;1.70;;;1.80;20.10;;;;;;5011546;28;21136;-53
2024/01/13 08:26:50;;;;;;;2.10;2.00;;;1.90;20.80;;;;;;5011781;28;20498;-53
2024/01/13 08:29:16;;;;;;;3.63;2.23;;;1.80;21.20;;;;;;5008803;28;20447;-53
2024/01/13 08:31:44;;;;;;;1.80;1.70;;;1.80;21.90;;;;;;5005190;28;20448;-53
2024/01/13 08:34:11;;;;;;;1.73;1.63;;;1.90;21.50;;;;;;5011635;28;20542;-54
2024/01/13 08:36:38;;;;;;;1.97;1.87;;;1.80;25.50;;;;;;5004534;28;20941;-55
2024/01/13 08:39:06;;;;;;;2.87;2.00;;;1.80;25.70;;;;;;5005835;28;20455;-54
2024/01/13 08:41:33;;;;;;;1.77;1.77;;;1.90;24.00;;;;;;5011453;28;20451;-54
2024/01/13 08:43:59;;;;;;;1.67;1.57;;;1.90;25.60;;;;;;5009573;28;20459;-54
2024/01/13 08:46:26;;;;;;;1.83;1.83;;;1.90;26.10;;;;;;5005111;28;20443;-54
2024/01/13 08:48:53;;;;;;;1.73;1.73;;;1.90;27.10;;;;;;5006716;28;20448;-54
2024/01/13 08:51:19;;;;;;;2.07;1.97;;;1.90;26.20;;;;;;5007498;28;20482;-55
2024/01/13 08:53:46;;;;;;;1.63;1.63;;;1.90;26.50;;;;;;5000259;28;20555;-54
2024/01/13 08:56:14;;;;;;;1.90;1.90;;;1.90;28.60;;;;;;5010352;28;20934;-55
2024/01/13 08:58:42;;;;;;;1.93;1.60;;;2.00;29.20;;;;;;5010891;28;20526;-54
2024/01/13 09:01:08;;;;;;;2.93;2.13;;;2.00;30.40;;;;;;5009855;28;20859;-54
2024/01/13 09:03:35;;;;;;;1.77;1.70;;;2.10;29.80;;;;;;5010766;28;20510;-54
2024/01/13 09:06:01;;;;;;;2.33;2.23;;;2.10;34.00;;;;;;5015241;28;20490;-54
2024/01/13 09:08:28;;;;;;;2.27;2.17;;;2.20;35.50;;;;;;5009895;28;20517;-55
2024/01/13 09:10:54;;;;;;;2.07;1.97;;;2.20;39.80;;;;;;5008469;28;20511;-54
2024/01/13 09:13:22;;;;;;;2.87;2.63;;;2.30;40.80;;;;;;5012564;28;20486;-54
2024/01/13 09:15:49;;;;;;;2.40;2.20;;;2.30;42.90;;;;;;5006347;28;20444;-54
2024/01/13 09:18:15;;;;;;;2.20;2.10;;;2.30;47.40;;;;;;5009569;28;20463;-54
2024/01/13 09:20:42;;;;;;;1.93;1.83;;;2.30;48.10;;;;;;5007794;28;20534;-54
2024/01/13 09:23:09;;;;;;;1.90;1.80;;;2.30;47.80;;;;;;5009602;28;20514;-54
2024/01/13 09:25:36;;;;;;;2.20;2.10;;;2.20;47.50;;;;;;5010217;28;20443;-54
2024/01/13 09:28:02;;;;;;;2.10;2.00;;;2.20;48.00;;;;;;5008757;28;20443;-54
2024/01/13 09:30:30;;;;;;;1.87;1.77;;;2.20;49.90;;;;;;5007454;28;20443;-54
2024/01/13 09:32:57;;;;;;;1.70;1.60;;;2.20;48.30;;;;;;5009953;28;20561;-54
2024/01/13 09:35:23;;;;;;;1.87;1.77;;;2.20;47.80;;;;;;5010780;28;20455;-54
2024/01/13 09:37:50;;;;;;;1.93;1.83;;;2.10;45.30;;;;;;5009841;28;20814;-55
2024/01/13 09:40:19;;;;;;;1.80;1.70;;;2.10;46.30;;;;;;5010606;28;20533;-54
2024/01/13 09:42:53;;;;;;;1.80;1.80;;;2.20;45.30;;;;;;5001798;28;20468;-54
2024/01/13 09:45:20;;;;;;;1.97;1.87;;;2.20;49.80;;;;;;5004469;28;20440;-54
2024/01/13 09:47:48;;;;;;;2.20;1.90;;;2.20;47.50;;;;;;5005109;28;20867;-54
2024/01/13 09:50:15;;;;;;;1.40;1.30;;;2.30;50.10;;;;;;5009907;28;20467;-54
2024/01/13 09:52:44;;;;;;;1.70;1.60;;;2.30;51.60;;;;;;5017480;28;20451;-54
2024/01/13 09:55:16;;;;;;;1.60;1.60;;;2.30;53.00;;;;;;5034942;28;20428;-55
2024/01/13 09:57:43;;;;;;;1.63;1.60;;;2.30;55.50;;;;;;5035385;28;20451;-55
2024/01/13 10:00:11;;;;;;;1.77;1.77;;;2.30;55.80;;;;;;5034670;28;20478;-57
2024/01/13 10:02:38;;;;;;;1.63;1.63;;;2.30;55.70;;;;;;5030281;28;20490;-55
2024/01/13 10:05:07;;;;;;;1.60;1.60;;;2.20;56.10;;;;;;5011147;28;20444;-54
2024/01/13 10:07:36;;;;;;;1.80;1.70;;;2.20;53.00;;;;;;5013671;28;20493;-54
2024/01/13 10:10:03;;;;;;;1.43;1.33;;;2.20;53.60;;;;;;5011741;28;20443;-54
2024/01/13 10:12:30;;;;;;;2.10;1.60;;;2.20;50.80;;;;;;5010510;28;20457;-54
2024/01/13 10:14:57;;;;;;;1.90;1.80;;;2.10;50.70;;;;;;5009842;28;20483;-54
2024/01/13 10:17:25;;;;;;;1.67;1.60;;;2.20;47.50;;;;;;5014230;28;20503;-54
2024/01/13 10:19:52;;;;;;;1.73;1.63;;;2.20;47.90;;;;;;5013738;28;20501;-54
2024/01/13 10:22:23;;;;;;;1.80;1.70;;;2.20;47.70;;;;;;5013580;28;20459;-54
2024/01/13 10:24:50;;;;;;;1.60;1.60;;;2.30;48.60;;;;;;5016678;28;20495;-54
2024/01/13 10:27:16;;;;;;;1.50;1.40;;;2.30;54.40;;;;;;5005360;28;20502;-55
2024/01/13 10:29:43;;;;;;;1.50;1.50;;;2.30;56.70;;;;;;5016228;28;20475;-53
2024/01/13 10:32:10;;;;;;;1.67;1.57;;;2.20;57.20;;;;;;5012500;28;20511;-54
2024/01/13 10:34:37;;;;;;;1.53;1.43;;;2.20;55.60;;;;;;5011935;28;21105;-54
2024/01/13 10:37:10;;;;;;;1.60;1.50;;;2.20;54.90;;;;;;5008297;28;20463;-54
2024/01/13 10:39:38;;;;;;;1.70;1.63;;;2.20;54.40;;;;;;5008826;28;20463;-55
2024/01/13 10:42:09;;;;;;;1.53;1.53;;;2.20;53.70;;;;;;5010142;28;20484;-54
2024/01/13 10:44:41;;;;;;;1.30;1.30;;;2.20;50.80;;;;;;5010054;28;20484;-53
2024/01/13 10:47:13;;;;;;;1.20;1.20;;;2.20;47.60;;;;;;5010421;28;20514;-54
2024/01/13 10:49:43;;;;;;;2.60;1.40;;;2.20;47.10;;;;;;5006569;28;20958;-54
2024/01/13 10:52:13;;;;;;;2.07;1.97;;;2.30;46.40;;;;;;5011107;28;20484;-54
2024/01/13 10:54:41;;;;;;;1.67;1.67;;;2.30;45.30;;;;;;5010825;28;20480;-54
2024/01/13 10:57:09;;;;;;;1.43;1.43;;;2.30;47.40;;;;;;5006877;28;20914;-55
2024/01/13 10:59:37;;;;;;;2.80;1.73;;;2.30;46.50;;;;;;5010823;28;20510;-54
2024/01/13 11:02:09;;;;;;;1.80;1.70;;;2.20;49.60;;;;;;5008707;28;20547;-55
2024/01/13 11:04:35;;;;;;;1.70;1.70;;;2.20;49.20;;;;;;5010986;28;20474;-54
2024/01/13 11:07:02;;;;;;;2.17;2.03;;;2.20;51.50;;;;;;5008431;28;20510;-54
2024/01/13 11:09:29;;;;;;;1.40;1.40;;;2.20;51.10;;;;;;5008510;28;20463;-54
2024/01/13 11:12:07;;;;;;;1.60;1.60;;;2.20;49.60;;;;;;5010358;28;20464;-54
2024/01/13 11:14:40;;;;;;;2.03;1.93;;;2.20;48.10;;;;;;5006469;28;20495;-54
2024/01/13 11:17:08;;;;;;;1.90;1.80;;;2.20;46.10;;;;;;5007635;28;20509;-54
2024/01/13 11:19:36;;;;;;;2.20;2.10;;;2.20;46.50;;;;;;5007521;28;20463;-54
2024/01/13 11:22:30;;;;;;;2.03;1.93;;;2.10;45.60;;;;;;5007169;28;20475;-54
2024/01/13 11:24:57;;;;;;;1.90;1.80;;;2.10;44.80;;;;;;5008246;28;20514;-54
2024/01/13 11:27:25;;;;;;;2.40;2.27;;;2.10;44.70;;;;;;5004612;28;20455;-54
2024/01/13 11:29:52;;;;;;;2.57;2.17;;;2.10;44.40;;;;;;5008002;28;20513;-54
2024/01/13 11:32:19;;;;;;;2.17;2.07;;;2.10;45.10;;;;;;5007295;28;20541;-54
2024/01/13 11:34:47;;;;;;;2.20;2.10;;;2.10;44.60;;;;;;5009055;28;20511;-55
2024/01/13 11:37:13;;;;;;;2.30;2.20;;;2.10;45.30;;;;;;5009060;28;20459;-54
2024/01/13 11:39:45;;;;;;;2.03;1.93;;;2.10;42.90;;;;;;5008453;28;20471;-55
2024/01/13 11:42:12;;;;;;;2.00;1.90;;;2.10;40.50;;;;;;5008397;28;20555;-54
2024/01/13 11:44:44;;;;;;;1.63;1.53;;;2.10;38.70;;;;;;5002693;28;20517;-55
2024/01/13 11:47:12;;;;;;;2.27;2.03;;;2.00;39.00;;;;;;5007947;28;20525;-54
2024/01/13 11:49:39;;;;;;;1.97;1.87;;;2.00;35.40;;;;;;5009040;28;20463;-54
2024/01/13 11:52:07;;;;;;;2.10;2.00;;;2.10;33.90;;;;;;5007781;28;20486;-54
2024/01/13 11:54:35;;;;;;;1.70;1.60;;;2.00;32.30;;;;;;5009468;28;20996;-54
2024/01/13 11:57:04;;;;;;;2.20;1.80;;;2.00;29.50;;;;;;5009782;28;20467;-54
2024/01/13 11:59:30;;;;;;;1.73;1.67;;;2.00;27.00;;;;;;5005287;28;20526;-54
2024/01/13 12:01:58;;;;;;;1.67;1.57;;;2.10;26.90;;;;;;5008025;28;20521;-54
2024/01/13 12:04:26;;;;;;;1.70;1.60;;;2.10;26.70;;;;;;5011332;28;20456;-54
2024/01/13 12:06:54;;;;;;;2.30;2.20;;;2.10;28.20;;;;;;5009202;28;20462;-54
2024/01/13 12:09:23;;;;;;;2.27;2.17;;;2.10;26.70;;;;;;5009549;28;20456;-53
2024/01/13 12:11:53;;;;;;;2.10;1.80;;;2.10;27.10;;;;;;5007280;28;20458;-54
2024/01/13 12:14:25;;;;;;;1.30;1.30;;;2.10;25.80;;;;;;5011215;28;20487;-54
2024/01/13 12:16:52;;;;;;;1.50;1.50;;;2.10;26.10;;;;;;5008732;28;20460;-54
2024/01/13 12:19:21;;;;;;;1.80;1.73;;;2.10;27.50;;;;;;5006974;28;20577;-54
2024/01/13 12:21:47;;;;;;;1.90;1.80;;;2.10;28.30;;;;;;5008571;28;20513;-54
2024/01/13 12:24:14;;;;;;;1.63;1.53;;;2.10;28.40;;;;;;5007264;28;20526;-54
2024/01/13 12:26:41;;;;;;;2.27;2.10;;;2.10;28.80;;;;;;5010179;28;20498;-54
2024/01/13 12:29:09;;;;;;;1.80;1.70;;;2.00;30.50;;;;;;5007801;28;20459;-54
2024/01/13 12:31:35;;;;;;;2.43;2.00;;;2.10;27.90;;;;;;5007399;28;20883;-55
2024/01/13 12:34:09;;;;;;;1.60;1.50;;;2.10;28.30;;;;;;5008794;28;20487;-54
2024/01/13 12:36:38;;;;;;;2.37;2.27;;;2.10;28.00;;;;;;5005932;28;20575;-54
2024/01/13 12:39:05;;;;;;;2.20;2.10;;;2.10;28.40;;;;;;5009963;28;20459;-54
2024/01/13 12:41:32;;;;;;;1.60;1.60;;;2.10;28.60;;;;;;5006282;28;20467;-54
2024/01/13 12:43:59;;;;;;;2.30;2.20;;;2.10;29.30;;;;;;5005936;28;20537;-53
2024/01/13 12:46:26;;;;;;;3.00;2.80;;;2.10;29.00;;;;;;5009135;28;20463;-55
2024/01/13 12:48:54;;;;;;;2.00;1.90;;;2.10;27.50;;;;;;4995530;28;20471;-54
2024/01/13 12:51:21;;;;;;;2.33;2.23;;;2.10;26.80;;;;;;5006072;28;20466;-54
2024/01/13 12:53:49;;;;;;;3.13;2.70;;;2.10;25.60;;;;;;4999495;28;20515;-54
2024/01/13 12:56:17;;;;;;;1.93;1.83;;;2.10;23.80;;;;;;5007738;28;20579;-55